Time;durP1;ratioP1;P1;durP2;ratioP2;P2;SDS_P1;SDS_P2;PMS_P1;PMS_P2;Temp;Humidity;BMP_temperature;BMP_pressure;BME280_temperature;BME280_humidity;BME280_pressure;Samples;Min_cycle;Max_cycle;Signal;HPM_P1;HPM_P2
2023/11/21 00:01:16;;;;;;;10.05;5.47;;;-6.40;91.40;;;;;;5097384;28;20103;-86
2023/11/21 00:03:43;;;;;;;10.43;6.65;;;-6.40;91.10;;;;;;5118864;28;20025;-89
2023/11/21 00:06:31;;;;;;;7.22;5.10;;;-6.40;91.20;;;;;;5103282;28;20015;-87
2023/11/21 00:09:20;;;;;;;7.15;4.72;;;-6.40;91.30;;;;;;5115939;28;20035;-86
2023/11/21 00:12:03;;;;;;;8.98;5.55;;;-6.30;91.20;;;;;;5119135;28;20035;-86
2023/11/21 00:14:32;;;;;;;11.77;6.28;;;-6.40;91.00;;;;;;5086683;28;20101;-87
2023/11/21 00:17:24;;;;;;;7.05;5.22;;;-6.40;91.00;;;;;;5100363;28;20060;-88
2023/11/21 00:19:55;;;;;;;8.60;4.78;;;-6.50;90.80;;;;;;5099976;28;20031;-85
2023/11/21 00:22:22;;;;;;;8.27;5.95;;;-6.50;91.00;;;;;;5097433;28;20102;-86
2023/11/21 00:25:12;;;;;;;9.20;4.65;;;-6.60;91.00;;;;;;5086483;28;20115;-86
2023/11/21 00:27:38;;;;;;;8.55;4.97;;;-6.60;91.10;;;;;;5107578;28;20389;-89
2023/11/21 00:30:24;;;;;;;8.15;4.90;;;-6.60;91.00;;;;;;5103666;28;20023;-87
2023/11/21 00:32:55;;;;;;;8.55;5.15;;;-6.60;91.10;;;;;;5107107;28;20100;-87
2023/11/21 00:35:21;;;;;;;9.38;5.90;;;-6.60;91.10;;;;;;5109990;28;20016;-88
2023/11/21 00:37:49;;;;;;;6.50;4.90;;;-6.60;91.20;;;;;;5097852;28;20020;-88
2023/11/21 00:40:15;;;;;;;9.02;6.00;;;-6.60;91.20;;;;;;5103776;28;20065;-88
2023/11/21 00:42:42;;;;;;;8.63;6.43;;;-6.60;91.10;;;;;;5097692;28;20043;-86
2023/11/21 00:45:08;;;;;;;9.60;5.05;;;-6.60;91.10;;;;;;5107462;28;20035;-85
2023/11/21 00:47:34;;;;;;;5.87;4.20;;;-6.70;91.20;;;;;;5106192;28;20028;-87
2023/11/21 00:50:00;;;;;;;8.77;5.38;;;-6.60;91.20;;;;;;5105116;28;20034;-85
2023/11/21 00:52:26;;;;;;;6.70;4.63;;;-6.60;91.20;;;;;;5124270;28;20434;-87
2023/11/21 00:54:52;;;;;;;10.70;5.32;;;-6.50;91.30;;;;;;5088579;28;20061;-86
2023/11/21 00:57:19;;;;;;;4.97;3.78;;;-6.50;91.40;;;;;;5084861;28;20503;-88
2023/11/21 00:59:45;;;;;;;7.93;4.72;;;-6.50;91.30;;;;;;5112550;28;20027;-87
2023/11/21 01:02:11;;;;;;;8.80;4.97;;;-6.50;91.20;;;;;;5079995;28;20024;-87
2023/11/21 01:04:37;;;;;;;6.82;4.25;;;-6.50;91.10;;;;;;5112756;28;20023;-87
2023/11/21 01:07:05;;;;;;;11.20;5.57;;;-6.60;90.90;;;;;;5095994;28;20477;-87
2023/11/21 01:09:31;;;;;;;7.10;4.55;;;-6.60;91.00;;;;;;5081126;28;20035;-86
2023/11/21 01:11:57;;;;;;;12.30;5.40;;;-6.60;91.10;;;;;;5118843;28;20031;-86
2023/11/21 01:14:23;;;;;;;7.65;5.10;;;-6.60;91.20;;;;;;5096857;28;20039;-87
2023/11/21 01:16:49;;;;;;;10.50;5.20;;;-6.60;91.20;;;;;;5109321;28;20377;-88
2023/11/21 01:19:14;;;;;;;9.88;4.25;;;-6.60;91.20;;;;;;5084947;28;20031;-86
2023/11/21 01:21:40;;;;;;;12.27;5.47;;;-6.60;91.10;;;;;;5077876;28;20024;-86
2023/11/21 01:24:07;;;;;;;8.10;4.38;;;-6.60;91.00;;;;;;5102130;28;20054;-87
2023/11/21 01:26:33;;;;;;;6.80;4.23;;;-6.60;91.00;;;;;;5108048;28;20024;-86
2023/11/21 01:29:02;;;;;;;10.10;5.18;;;-6.70;91.10;;;;;;5129063;28;20280;-85
2023/11/21 01:31:29;;;;;;;8.15;5.32;;;-6.60;91.10;;;;;;5121014;28;20023;-86
2023/11/21 01:33:55;;;;;;;;;;;-6.60;91.20;;;;;;5096411;28;20056;-86
2023/11/21 01:36:21;;;;;;;9.75;5.10;;;-6.60;91.00;;;;;;5103246;28;19911;-87
2023/11/21 01:38:50;;;;;;;10.02;4.47;;;-6.70;90.90;;;;;;5104209;28;20032;-87
2023/11/21 01:41:17;;;;;;;7.25;5.00;;;-6.70;91.00;;;;;;5103067;28;20016;-88
2023/11/21 01:43:43;;;;;;;11.73;5.20;;;-6.70;91.10;;;;;;5104300;28;20024;-86
2023/11/21 01:46:09;;;;;;;7.00;4.88;;;-6.70;91.20;;;;;;5120313;28;20087;-88
2023/11/21 01:48:35;;;;;;;6.22;4.28;;;-6.70;91.20;;;;;;5118562;28;20465;-87
2023/11/21 01:51:02;;;;;;;11.57;5.60;;;-6.70;91.20;;;;;;5107040;28;20054;-88
2023/11/21 01:53:28;;;;;;;10.55;5.03;;;-6.60;91.20;;;;;;5111616;28;20020;-87
2023/11/21 01:55:56;;;;;;;4.95;3.40;;;-6.60;91.10;;;;;;5102311;28;20085;-89
2023/11/21 01:58:22;;;;;;;8.73;5.80;;;-6.70;90.90;;;;;;5098287;28;20062;-89
2023/11/21 02:00:50;;;;;;;7.80;4.60;;;-6.70;91.00;;;;;;5097869;28;20124;-87
2023/11/21 02:03:17;;;;;;;10.63;4.90;;;-6.60;91.20;;;;;;5107012;28;20049;-89
2023/11/21 02:05:42;;;;;;;5.05;3.70;;;-6.60;91.00;;;;;;5097561;28;20489;-89
2023/11/21 02:08:09;;;;;;;7.03;4.10;;;-6.60;90.80;;;;;;5108777;28;20028;-88
2023/11/21 02:10:36;;;;;;;6.95;4.75;;;-6.60;90.70;;;;;;5081230;28;20031;-89
2023/11/21 02:13:03;;;;;;;7.88;4.25;;;-6.70;90.70;;;;;;5107537;28;20035;-89
2023/11/21 02:15:29;;;;;;;4.57;3.80;;;-6.70;90.60;;;;;;5117858;28;20462;-86
2023/11/21 02:17:58;;;;;;;8.35;5.05;;;-6.70;90.50;;;;;;5092386;28;20547;-88
2023/11/21 02:20:24;;;;;;;4.88;2.88;;;-6.80;90.60;;;;;;5101233;28;20024;-88
2023/11/21 02:23:00;;;;;;;9.90;5.25;;;-6.80;90.60;;;;;;5138534;28;20069;-87
2023/11/21 02:25:30;;;;;;;5.70;3.38;;;-6.80;90.60;;;;;;5108491;28;20016;-87
2023/11/21 02:27:58;;;;;;;5.65;3.75;;;-6.70;90.50;;;;;;5119965;28;20165;-89
2023/11/21 02:30:33;;;;;;;4.97;4.03;;;-6.80;90.40;;;;;;5098986;28;20023;-88
2023/11/21 02:33:02;;;;;;;4.60;3.78;;;-6.80;90.20;;;;;;5084484;28;20030;-86
2023/11/21 02:35:27;;;;;;;6.70;3.72;;;-6.80;90.10;;;;;;5094466;28;20023;-87
2023/11/21 02:37:54;;;;;;;7.30;3.50;;;-6.80;90.00;;;;;;5115484;28;20503;-85
2023/11/21 02:40:20;;;;;;;8.70;4.22;;;-6.80;90.00;;;;;;5118075;28;20020;-85
2023/11/21 02:42:52;;;;;;;9.00;5.10;;;-6.80;89.90;;;;;;5099773;28;20508;-85
2023/11/21 02:45:22;;;;;;;10.55;4.60;;;-6.80;90.10;;;;;;5104206;28;20024;-88
2023/11/21 02:47:49;;;;;;;7.80;4.57;;;-6.80;89.70;;;;;;5115225;28;20020;-87
2023/11/21 02:50:15;;;;;;;8.13;4.90;;;-6.80;88.90;;;;;;5077682;28;20023;-87
2023/11/21 02:52:40;;;;;;;6.78;4.60;;;-6.90;89.20;;;;;;5117993;28;20083;-84
2023/11/21 02:55:09;;;;;;;8.32;4.50;;;-6.90;89.40;;;;;;5123901;28;20024;-85
2023/11/21 02:57:34;;;;;;;6.88;4.63;;;-6.90;89.30;;;;;;5101376;28;20013;-84
2023/11/21 03:00:00;;;;;;;8.57;3.72;;;-6.80;89.70;;;;;;5100844;28;20489;-83
2023/11/21 03:02:26;;;;;;;6.75;3.85;;;-6.90;88.60;;;;;;5106811;28;20023;-85
2023/11/21 03:04:52;;;;;;;7.88;4.28;;;-6.90;88.50;;;;;;5094371;28;20024;-84
2023/11/21 03:07:21;;;;;;;8.48;3.80;;;-6.90;88.80;;;;;;5126778;28;20065;-85
2023/11/21 03:09:47;;;;;;;4.15;3.50;;;-6.90;88.70;;;;;;5118742;28;20068;-86
2023/11/21 03:12:15;;;;;;;7.50;4.45;;;-6.90;88.50;;;;;;5095233;28;20444;-87
2023/11/21 03:14:41;;;;;;;5.28;3.60;;;-6.90;88.20;;;;;;5077935;28;20045;-85
2023/11/21 03:17:07;;;;;;;4.32;3.90;;;-6.90;88.10;;;;;;5130939;28;20011;-85
2023/11/21 03:19:33;;;;;;;6.30;4.18;;;-7.00;88.30;;;;;;5122952;28;20037;-85
2023/11/21 03:21:59;;;;;;;4.57;3.17;;;-7.00;88.30;;;;;;5121559;28;20024;-86
2023/11/21 03:24:26;;;;;;;6.60;3.00;;;-7.00;88.40;;;;;;5116584;28;20107;-86
2023/11/21 03:26:52;;;;;;;5.75;5.15;;;-7.00;88.60;;;;;;5103662;28;20420;-87
2023/11/21 03:29:18;;;;;;;5.72;4.03;;;-7.00;89.00;;;;;;5109005;28;20065;-86
2023/11/21 03:31:44;;;;;;;4.53;3.38;;;-7.00;89.30;;;;;;5103268;28;20020;-84
2023/11/21 03:34:24;;;;;;;8.27;3.88;;;-7.00;89.00;;;;;;5115672;28;20050;-85
2023/11/21 03:36:50;;;;;;;7.40;3.85;;;-7.00;89.20;;;;;;5097475;28;20070;-85
2023/11/21 03:39:15;;;;;;;5.57;3.53;;;-7.00;89.50;;;;;;5094945;28;20049;-85
2023/11/21 03:41:41;;;;;;;6.47;3.40;;;-7.00;89.70;;;;;;5099436;28;20043;-84
2023/11/21 03:44:07;;;;;;;4.95;3.83;;;-7.00;89.80;;;;;;5114380;28;20050;-85
2023/11/21 03:46:33;;;;;;;6.60;4.07;;;-7.00;90.10;;;;;;5110353;28;20508;-87
2023/11/21 03:48:59;;;;;;;6.63;4.22;;;-7.00;90.00;;;;;;5105071;28;20420;-86
2023/11/21 03:51:25;;;;;;;9.40;4.32;;;-6.90;90.20;;;;;;5096120;28;20119;-87
2023/11/21 03:53:50;;;;;;;9.07;5.05;;;-6.90;90.10;;;;;;5088203;28;20035;-86
2023/11/21 03:56:16;;;;;;;5.80;4.68;;;-6.90;90.10;;;;;;5096859;28;20020;-86
2023/11/21 03:58:42;;;;;;;5.68;3.97;;;-6.90;90.20;;;;;;5084957;28;20028;-87
2023/11/21 04:01:08;;;;;;;6.93;3.97;;;-6.80;90.20;;;;;;5094558;28;20042;-86
2023/11/21 04:03:34;;;;;;;4.65;3.55;;;-6.80;90.20;;;;;;5098466;28;20019;-85
2023/11/21 04:06:00;;;;;;;6.93;3.97;;;-6.80;90.20;;;;;;5085994;28;20488;-85
2023/11/21 04:08:26;;;;;;;4.63;3.92;;;-6.80;90.20;;;;;;5094502;28;20105;-84
2023/11/21 04:10:53;;;;;;;10.65;4.75;;;-6.70;90.30;;;;;;5095485;28;20020;-86
2023/11/21 04:13:19;;;;;;;7.57;4.77;;;-6.70;90.20;;;;;;5076227;28;20461;-85
2023/11/21 04:15:45;;;;;;;10.85;4.60;;;-6.70;90.20;;;;;;5101900;28;20303;-87
2023/11/21 04:18:11;;;;;;;7.97;4.57;;;-6.70;90.10;;;;;;5114157;28;20436;-85
2023/11/21 04:20:36;;;;;;;14.48;5.28;;;-6.70;90.10;;;;;;5092057;28;20467;-86
2023/11/21 04:23:03;;;;;;;6.85;3.97;;;-6.70;90.10;;;;;;5087217;28;20020;-86
2023/11/21 04:25:29;;;;;;;7.23;3.83;;;-6.70;90.10;;;;;;5096516;28;20020;-87
2023/11/21 04:27:54;;;;;;;5.13;4.40;;;-6.70;90.00;;;;;;5093289;28;20028;-87
2023/11/21 04:30:20;;;;;;;6.45;4.65;;;-6.80;90.10;;;;;;5088250;28;20054;-89
2023/11/21 04:32:46;;;;;;;7.38;4.55;;;-6.80;90.20;;;;;;5117509;28;20012;-86
2023/11/21 04:35:12;;;;;;;7.53;3.55;;;-6.80;90.30;;;;;;5085820;28;20028;-87
2023/11/21 04:37:38;;;;;;;6.78;4.65;;;-6.90;90.30;;;;;;5117219;28;20025;-86
2023/11/21 04:40:06;;;;;;;6.47;4.38;;;-6.90;90.40;;;;;;5129556;28;20028;-85
2023/11/21 04:42:36;;;;;;;8.07;4.72;;;-6.90;90.50;;;;;;5111076;28;20036;-87
2023/11/21 04:45:09;;;;;;;4.80;3.78;;;-6.90;90.50;;;;;;5102087;28;20028;-88
2023/11/21 04:47:35;;;;;;;9.18;4.15;;;-6.80;90.40;;;;;;5103586;28;20016;-86
2023/11/21 04:50:03;;;;;;;6.78;4.13;;;-6.90;90.60;;;;;;5134318;28;20084;-85
2023/11/21 04:52:29;;;;;;;;;;;-6.90;90.50;;;;;;5131385;28;20038;-84
2023/11/21 04:54:57;;;;;;;7.90;4.57;;;-6.90;90.50;;;;;;5119388;28;19998;-87
2023/11/21 04:57:23;;;;;;;6.82;4.88;;;-6.90;90.50;;;;;;5114229;28;20080;-86
2023/11/21 04:59:50;;;;;;;8.25;4.75;;;-6.90;90.60;;;;;;5112537;28;20465;-86
2023/11/21 05:02:16;;;;;;;7.43;4.85;;;-6.90;90.70;;;;;;5118006;28;20035;-87
2023/11/21 05:04:45;;;;;;;5.82;4.07;;;-6.90;90.60;;;;;;5090005;28;20477;-86
2023/11/21 05:07:11;;;;;;;7.10;3.92;;;-6.90;90.70;;;;;;5099872;28;20028;-86
2023/11/21 05:09:43;;;;;;;7.88;4.80;;;-6.90;90.80;;;;;;5100351;28;20032;-87
2023/11/21 05:12:10;;;;;;;5.82;3.92;;;-6.80;90.80;;;;;;5102319;28;20023;-86
2023/11/21 05:14:36;;;;;;;9.15;3.88;;;-6.90;90.60;;;;;;5105675;28;20051;-87
2023/11/21 05:17:04;;;;;;;5.25;3.70;;;-6.90;90.50;;;;;;5081071;28;20467;-86
2023/11/21 05:19:29;;;;;;;;;;;-7.00;90.60;;;;;;5099817;28;20016;-87
2023/11/21 05:21:55;;;;;;;8.40;4.53;;;-6.90;90.70;;;;;;5092165;28;19914;-84
2023/11/21 05:24:21;;;;;;;9.00;4.90;;;-7.00;90.60;;;;;;5096814;28;20024;-85
2023/11/21 05:26:50;;;;;;;6.15;4.03;;;-6.90;90.60;;;;;;5093157;28;20024;-87
2023/11/21 05:29:16;;;;;;;7.38;5.28;;;-7.00;90.60;;;;;;5109066;28;20481;-88
2023/11/21 05:31:42;;;;;;;7.15;4.88;;;-7.00;90.80;;;;;;5103845;28;20016;-86
2023/11/21 05:34:08;;;;;;;6.05;3.63;;;-7.00;90.60;;;;;;5095167;28;20032;-87
2023/11/21 05:36:33;;;;;;;9.13;4.75;;;-7.00;90.70;;;;;;5093014;28;20399;-87
2023/11/21 05:38:59;;;;;;;6.47;4.32;;;-7.00;90.70;;;;;;5121030;28;20008;-86
2023/11/21 05:41:25;;;;;;;7.50;4.38;;;-7.00;90.90;;;;;;5123187;28;20024;-87
2023/11/21 05:43:53;;;;;;;8.48;4.88;;;-7.00;91.00;;;;;;5101203;28;20043;-86
2023/11/21 05:46:19;;;;;;;7.95;5.90;;;-7.00;91.00;;;;;;5088852;28;20068;-85
2023/11/21 05:48:46;;;;;;;7.93;5.07;;;-7.00;90.90;;;;;;5104033;28;20122;-84
2023/11/21 05:51:13;;;;;;;11.20;5.05;;;-7.00;90.90;;;;;;5103707;28;20477;-85
2023/11/21 05:53:39;;;;;;;11.43;5.05;;;-6.90;91.00;;;;;;5092926;28;20020;-88
2023/11/21 05:56:05;;;;;;;10.20;5.85;;;-6.90;91.00;;;;;;5085572;28;20537;-89
2023/11/21 05:58:31;;;;;;;9.02;5.22;;;-6.80;91.00;;;;;;5086161;28;20058;-88
2023/11/21 06:00:57;;;;;;;8.13;5.90;;;-6.80;90.90;;;;;;5109007;28;20023;-87
2023/11/21 06:03:23;;;;;;;9.68;4.55;;;-6.80;90.90;;;;;;5081660;28;20479;-84
2023/11/21 06:05:49;;;;;;;13.55;5.80;;;-6.90;90.90;;;;;;5088344;28;20028;-87
2023/11/21 06:08:16;;;;;;;17.65;5.22;;;-6.90;91.10;;;;;;5099897;28;20024;-85
2023/11/21 06:10:43;;;;;;;18.42;5.63;;;-6.90;91.20;;;;;;5115126;28;20118;-87
2023/11/21 06:13:10;;;;;;;8.57;5.93;;;-7.00;91.40;;;;;;5087548;28;20050;-90
2023/11/21 06:15:36;;;;;;;6.13;3.88;;;-7.10;91.50;;;;;;5101191;28;20008;-89
2023/11/21 06:18:02;;;;;;;11.82;5.10;;;-7.10;91.60;;;;;;5096288;28;20028;-88
2023/11/21 06:20:28;;;;;;;12.73;5.10;;;-7.20;91.80;;;;;;5100742;28;20021;-88
2023/11/21 06:22:54;;;;;;;14.57;6.68;;;-7.10;92.10;;;;;;5098747;28;20020;-90
2023/11/21 06:25:20;;;;;;;11.80;5.47;;;-7.10;91.90;;;;;;5098805;28;20038;-89
2023/11/21 06:27:48;;;;;;;7.70;5.45;;;-7.00;91.90;;;;;;5105858;28;20012;-90
2023/11/21 06:30:15;;;;;;;17.85;5.82;;;-7.00;91.80;;;;;;5083610;28;20039;-91
2023/11/21 06:32:41;;;;;;;5.78;5.20;;;-7.00;92.00;;;;;;5094750;28;20118;-90
2023/11/21 06:35:09;;;;;;;10.70;5.13;;;-6.90;92.10;;;;;;5106525;28;20539;-90
2023/11/21 06:37:35;;;;;;;15.98;6.40;;;-6.80;91.80;;;;;;5100539;28;20042;-89
2023/11/21 06:40:08;;;;;;;4.32;3.55;;;-6.80;91.70;;;;;;5094425;28;20043;-88
2023/11/21 06:42:33;;;;;;;16.35;8.07;;;-6.70;91.70;;;;;;5099032;28;20040;-89
2023/11/21 06:45:03;;;;;;;11.82;5.00;;;-6.70;91.40;;;;;;5118670;28;20026;-88
2023/11/21 06:47:30;;;;;;;8.52;4.88;;;-6.70;91.60;;;;;;5102418;28;20028;-90
2023/11/21 06:49:57;;;;;;;6.75;4.97;;;-6.60;91.60;;;;;;5117471;28;20062;-91
2023/11/21 06:52:22;;;;;;;8.45;5.30;;;-6.60;91.60;;;;;;5112120;28;20020;-87
2023/11/21 06:54:49;;;;;;;9.95;4.30;;;-6.70;91.00;;;;;;5084930;28;20031;-89
2023/11/21 06:57:15;;;;;;;14.30;6.15;;;-6.80;91.20;;;;;;5118879;28;20020;-89
2023/11/21 06:59:41;;;;;;;7.50;4.90;;;-6.80;91.20;;;;;;5102473;28;20028;-90
2023/11/21 07:02:07;;;;;;;8.32;5.18;;;-6.80;91.30;;;;;;5093485;28;20024;-90
2023/11/21 07:04:34;;;;;;;10.75;4.55;;;-6.90;91.10;;;;;;5092232;28;20501;-89
2023/11/21 07:07:00;;;;;;;8.17;5.33;;;-6.90;90.90;;;;;;5114157;28;20024;-90
2023/11/21 07:09:26;;;;;;;8.63;4.45;;;-6.90;90.90;;;;;;5099084;28;20092;-90
2023/11/21 07:11:53;;;;;;;7.28;4.70;;;-6.90;90.80;;;;;;5114818;28;20016;-89
2023/11/21 07:14:19;;;;;;;4.53;4.05;;;-6.90;90.90;;;;;;5124676;28;20022;-90
2023/11/21 07:16:46;;;;;;;7.55;4.82;;;-6.80;90.90;;;;;;5107423;28;20024;-91
2023/11/21 07:19:12;;;;;;;9.63;4.45;;;-6.80;90.50;;;;;;5117768;28;20085;-89
2023/11/21 07:21:41;;;;;;;8.30;4.65;;;-6.80;90.50;;;;;;5118497;28;20028;-89
2023/11/21 07:24:08;;;;;;;6.22;3.85;;;-6.80;90.50;;;;;;5120339;28;20011;-89
2023/11/21 07:26:35;;;;;;;7.38;4.13;;;-6.80;90.70;;;;;;5123162;28;20016;-89
2023/11/21 07:29:02;;;;;;;8.45;4.95;;;-6.70;90.50;;;;;;5114370;28;20162;-89
2023/11/21 07:31:29;;;;;;;13.02;4.28;;;-6.70;90.60;;;;;;5099223;28;20027;-88
2023/11/21 07:33:57;;;;;;;8.90;4.85;;;-6.60;90.70;;;;;;5100106;28;20055;-90
2023/11/21 07:36:23;;;;;;;11.32;6.32;;;-6.60;90.90;;;;;;5108695;28;20094;-89
2023/11/21 07:38:50;;;;;;;10.45;5.00;;;-6.60;90.30;;;;;;5131176;28;20023;-89
2023/11/21 07:41:17;;;;;;;7.28;3.70;;;-6.70;90.30;;;;;;5096034;28;20044;-88
2023/11/21 07:43:46;;;;;;;6.25;3.90;;;-6.70;90.30;;;;;;5110856;28;20054;-88
2023/11/21 07:46:13;;;;;;;6.53;4.65;;;-6.70;90.40;;;;;;5115444;28;20051;-89
2023/11/21 07:48:40;;;;;;;6.80;4.50;;;-6.60;90.70;;;;;;5116752;28;20024;-90
2023/11/21 07:51:07;;;;;;;8.90;4.47;;;-6.40;90.70;;;;;;5100424;28;20051;-91
2023/11/21 07:53:33;;;;;;;16.77;5.47;;;-6.30;90.40;;;;;;5104941;28;20024;-89
2023/11/21 07:56:08;;;;;;;8.15;4.72;;;-6.30;90.40;;;;;;5126239;28;20024;-89
2023/11/21 07:58:37;;;;;;;6.18;4.45;;;-6.10;90.40;;;;;;5112771;28;20107;-88
2023/11/21 08:01:09;;;;;;;7.47;6.20;;;-6.00;90.30;;;;;;5100048;28;20024;-90
2023/11/21 08:03:36;;;;;;;14.95;4.80;;;-5.90;90.00;;;;;;5103636;28;20035;-92
2023/11/21 08:06:03;;;;;;;8.70;4.97;;;-6.00;89.00;;;;;;5111482;28;20385;-87
2023/11/21 08:08:29;;;;;;;8.75;6.13;;;-6.00;89.40;;;;;;5101165;28;20054;-91
2023/11/21 08:10:57;;;;;;;6.88;4.68;;;-6.00;89.80;;;;;;5087419;28;20031;-89
2023/11/21 08:13:30;;;;;;;13.48;4.78;;;-6.10;88.80;;;;;;5113088;28;20055;-90
2023/11/21 08:16:03;;;;;;;9.38;5.53;;;-6.30;88.80;;;;;;5131848;28;20020;-88
2023/11/21 08:18:29;;;;;;;7.78;4.75;;;-6.30;89.70;;;;;;5121851;28;20035;-89
2023/11/21 08:20:56;;;;;;;6.70;4.70;;;-6.40;90.10;;;;;;5094072;28;20074;-90
2023/11/21 08:23:28;;;;;;;10.52;3.80;;;-6.40;90.00;;;;;;5089904;28;20031;-89
2023/11/21 08:25:54;;;;;;;8.07;3.75;;;-6.50;89.60;;;;;;5091066;28;20020;-87
2023/11/21 08:28:25;;;;;;;8.13;4.50;;;-6.50;89.50;;;;;;5106846;28;20037;-90
2023/11/21 08:30:52;;;;;;;6.13;4.10;;;-6.50;90.00;;;;;;5105161;28;20024;-89
2023/11/21 08:33:20;;;;;;;8.35;7.53;;;-6.50;90.20;;;;;;5135388;28;20012;-89
2023/11/21 08:35:46;;;;;;;6.50;5.80;;;-6.40;90.20;;;;;;5104922;28;20031;-89
2023/11/21 08:38:13;;;;;;;10.82;5.15;;;-6.30;90.00;;;;;;5121154;28;20372;-90
2023/11/21 08:40:39;;;;;;;11.07;5.25;;;-6.20;90.10;;;;;;5108037;28;20023;-92
2023/11/21 08:43:05;;;;;;;14.35;4.63;;;-6.10;89.80;;;;;;5104403;28;20096;-89
2023/11/21 08:45:33;;;;;;;6.88;4.72;;;-6.10;89.50;;;;;;5117148;28;20031;-88
2023/11/21 08:48:02;;;;;;;5.35;4.20;;;-6.10;89.90;;;;;;5105294;28;20465;-90
2023/11/21 08:50:28;;;;;;;12.35;6.10;;;-6.10;90.00;;;;;;5098665;28;20081;-89
2023/11/21 08:52:55;;;;;;;10.88;4.60;;;-6.10;89.70;;;;;;5128456;28;20102;-90
2023/11/21 08:55:24;;;;;;;8.63;5.53;;;-6.00;88.90;;;;;;5093617;28;20039;-89
2023/11/21 08:57:50;;;;;;;4.40;3.88;;;-6.10;89.00;;;;;;5095027;28;20024;-89
2023/11/21 09:00:17;;;;;;;5.35;3.20;;;-6.20;88.20;;;;;;5104075;28;20015;-89
2023/11/21 09:02:44;;;;;;;8.32;5.30;;;-6.20;88.50;;;;;;5089592;28;20039;-90
2023/11/21 09:05:13;;;;;;;10.15;3.97;;;-6.20;88.50;;;;;;5114029;28;20016;-93
2023/11/21 09:07:41;;;;;;;7.75;4.57;;;-6.20;88.50;;;;;;5099666;28;20027;-91
2023/11/21 09:10:09;;;;;;;11.75;4.97;;;-6.20;88.80;;;;;;5111133;28;20093;-91
2023/11/21 09:12:37;;;;;;;7.25;4.95;;;-6.30;89.10;;;;;;5105290;28;20501;-88
2023/11/21 09:15:07;;;;;;;7.43;4.43;;;-6.30;89.20;;;;;;5102922;28;20043;-90
2023/11/21 09:17:34;;;;;;;6.45;4.25;;;-6.30;89.40;;;;;;5099399;28;20016;-91
2023/11/21 09:20:00;;;;;;;9.18;4.60;;;-6.40;89.50;;;;;;5117202;28;20011;-91
2023/11/21 09:22:26;;;;;;;7.55;4.25;;;-6.30;89.60;;;;;;5084070;28;20039;-90
2023/11/21 09:24:53;;;;;;;9.48;4.68;;;-6.30;89.60;;;;;;5118794;28;20020;-90
2023/11/21 09:27:22;;;;;;;6.07;4.05;;;-6.30;89.40;;;;;;5094507;28;20123;-90
2023/11/21 09:29:48;;;;;;;5.00;4.28;;;-6.30;89.30;;;;;;5104437;28;20118;-88
2023/11/21 09:32:16;;;;;;;9.85;6.45;;;-6.30;89.70;;;;;;5095974;28;20426;-90
2023/11/21 09:34:50;;;;;;;;;;;-6.30;90.20;;;;;;5105815;28;20039;-91
2023/11/21 09:37:16;;;;;;;12.40;4.95;;;-6.20;90.30;;;;;;5090746;28;19911;-91
2023/11/21 09:39:43;;;;;;;6.15;3.80;;;-6.10;89.60;;;;;;5096482;28;20028;-87
2023/11/21 09:42:12;;;;;;;8.27;3.83;;;-6.10;89.30;;;;;;5107901;28;20528;-89
2023/11/21 09:44:47;;;;;;;5.93;4.35;;;-6.00;89.80;;;;;;5119578;28;20023;-90
2023/11/21 09:47:16;;;;;;;7.38;3.60;;;-5.90;90.10;;;;;;5091172;28;20020;-90
2023/11/21 09:49:49;;;;;;;8.48;3.90;;;-5.90;90.00;;;;;;5095970;28;20032;-91
2023/11/21 09:52:27;;;;;;;6.32;4.45;;;-5.90;90.10;;;;;;5096906;28;20532;-88
2023/11/21 09:54:57;;;;;;;5.75;4.88;;;-5.90;90.10;;;;;;5095540;28;20024;-90
2023/11/21 09:57:24;;;;;;;8.07;3.85;;;-5.90;89.50;;;;;;5111480;28;20012;-91
2023/11/21 09:59:59;;;;;;;9.10;3.47;;;-6.00;89.20;;;;;;5108096;28;20012;-89
2023/11/21 10:02:30;;;;;;;9.80;4.90;;;-6.10;89.50;;;;;;5110019;28;20037;-89
2023/11/21 10:04:56;;;;;;;5.68;3.55;;;-6.20;89.30;;;;;;5092168;28;20056;-90
2023/11/21 10:07:23;;;;;;;8.13;4.95;;;-6.20;89.60;;;;;;5096420;28;20024;-91
2023/11/21 10:09:51;;;;;;;5.15;3.78;;;-6.20;89.60;;;;;;5090045;28;20028;-90
2023/11/21 10:12:21;;;;;;;6.45;4.15;;;-6.20;89.60;;;;;;5070988;28;20058;-89
2023/11/21 10:14:49;;;;;;;8.95;4.13;;;-6.20;90.00;;;;;;5093536;28;20020;-89
2023/11/21 10:17:18;;;;;;;10.60;4.22;;;-6.10;90.00;;;;;;5106937;28;20008;-89
2023/11/21 10:19:49;;;;;;;6.03;3.88;;;-6.10;89.90;;;;;;5115070;28;20020;-90
2023/11/21 10:22:19;;;;;;;40.20;11.70;;;-6.00;90.00;;;;;;5104720;28;20016;-90
2023/11/21 10:24:46;;;;;;;10.85;4.65;;;-5.90;89.90;;;;;;5113145;28;20019;-89
2023/11/21 10:27:13;;;;;;;8.05;4.35;;;-5.90;89.60;;;;;;5081750;28;20045;-92
2023/11/21 10:29:41;;;;;;;5.95;4.38;;;-5.90;89.70;;;;;;5083368;28;20043;-90
2023/11/21 10:32:08;;;;;;;5.53;4.13;;;-5.80;89.60;;;;;;5111571;28;20033;-89
2023/11/21 10:34:41;;;;;;;5.82;4.20;;;-5.80;89.10;;;;;;5087687;28;20107;-90
2023/11/21 10:37:13;;;;;;;4.18;2.97;;;-5.80;89.50;;;;;;5106528;28;20026;-89
2023/11/21 10:39:39;;;;;;;7.88;4.55;;;-5.80;89.30;;;;;;5117744;28;20018;-90
2023/11/21 10:42:10;;;;;;;12.47;4.93;;;-5.80;89.50;;;;;;5131650;28;20039;-90
2023/11/21 10:44:35;;;;;;;7.10;4.55;;;-5.80;89.40;;;;;;5105282;28;20031;-89
2023/11/21 10:47:02;;;;;;;6.70;5.22;;;-5.70;89.30;;;;;;5124229;28;20019;-89
2023/11/21 10:49:28;;;;;;;7.63;4.67;;;-5.70;89.20;;;;;;5102476;28;20024;-91
2023/11/21 10:51:56;;;;;;;7.65;4.00;;;-5.60;88.80;;;;;;5101482;28;20302;-90
2023/11/21 10:54:26;;;;;;;6.88;4.38;;;-5.70;88.70;;;;;;5134340;28;20051;-90
2023/11/21 10:57:00;;;;;;;13.05;4.70;;;-5.60;88.70;;;;;;5108575;28;20021;-90
2023/11/21 10:59:30;;;;;;;8.10;4.47;;;-5.70;88.70;;;;;;5120722;28;20035;-91
2023/11/21 11:02:00;;;;;;;5.72;2.67;;;-5.70;89.20;;;;;;5118338;28;20020;-90
2023/11/21 11:04:28;;;;;;;22.92;7.50;;;-5.70;89.50;;;;;;5102819;28;20054;-91
2023/11/21 11:06:55;;;;;;;;;;;-5.70;89.40;;;;;;5109498;28;20023;-90
2023/11/21 11:09:20;;;;;;;;;;;-5.60;89.60;;;;;;5102117;28;19931;-91
2023/11/21 11:11:46;;;;;;;11.88;4.65;;;-5.60;88.50;;;;;;5110764;28;19969;-90
2023/11/21 11:14:13;;;;;;;7.45;4.90;;;-5.70;88.20;;;;;;5112949;28;20168;-90
2023/11/21 11:16:41;;;;;;;4.68;3.80;;;-5.70;88.30;;;;;;5103783;28;20169;-89
2023/11/21 11:19:08;;;;;;;;;;;-5.70;88.20;;;;;;5090966;28;20050;-89
2023/11/21 11:21:44;;;;;;;;;;;-5.70;88.30;;;;;;5089011;28;19904;-89
2023/11/21 11:24:29;;;;;;;5.60;3.70;;;-5.80;88.50;;;;;;5097630;28;19969;-89
2023/11/21 11:27:28;;;;;;;6.13;4.45;;;-5.70;89.00;;;;;;5108957;28;20031;-89
2023/11/21 11:30:22;;;;;;;6.82;4.90;;;-5.80;88.30;;;;;;5084249;28;20052;-90
2023/11/21 11:33:07;;;;;;;8.68;3.50;;;-5.90;88.20;;;;;;5101483;28;20093;-90
2023/11/21 11:35:57;;;;;;;7.97;5.32;;;-6.10;88.60;;;;;;5123799;28;20543;-89
2023/11/21 11:38:23;;;;;;;5.15;4.15;;;-6.10;89.20;;;;;;5097736;28;20111;-90
2023/11/21 11:40:53;;;;;;;9.10;5.25;;;-6.20;90.00;;;;;;5108048;28;20071;-90
2023/11/21 11:43:26;;;;;;;6.80;4.78;;;-6.20;90.20;;;;;;5101775;28;20044;-90
2023/11/21 11:45:57;;;;;;;9.32;4.93;;;-6.20;90.40;;;;;;5108805;28;20016;-91
2023/11/21 11:48:23;;;;;;;7.18;4.22;;;-6.20;90.70;;;;;;5099822;28;20027;-91
2023/11/21 11:51:16;;;;;;;5.45;3.90;;;-6.20;90.90;;;;;;5091866;28;20035;-90
2023/11/21 11:53:43;;;;;;;9.05;5.90;;;-6.20;91.10;;;;;;5098995;28;20016;-90
2023/11/21 11:56:31;;;;;;;6.63;4.75;;;-6.20;91.20;;;;;;5082506;28;20024;-89
2023/11/21 11:58:59;;;;;;;7.63;4.53;;;-6.30;91.40;;;;;;5106193;28;20032;-88
2023/11/21 12:01:29;;;;;;;11.50;6.03;;;-6.20;91.50;;;;;;5112069;28;20086;-90
2023/11/21 12:04:20;;;;;;;15.15;4.85;;;-6.20;91.40;;;;;;5103637;28;20011;-89
2023/11/21 12:06:46;;;;;;;12.65;5.47;;;-6.20;91.50;;;;;;5120391;28;20056;-89
2023/11/21 12:09:26;;;;;;;8.63;5.47;;;-6.20;91.60;;;;;;5099918;28;20655;-90
2023/11/21 12:11:56;;;;;;;8.32;5.38;;;-6.10;91.70;;;;;;5129441;28;20033;-90
2023/11/21 12:14:23;;;;;;;8.15;5.97;;;-6.00;91.60;;;;;;5102891;28;20036;-89
2023/11/21 12:16:52;;;;;;;10.88;5.75;;;-6.00;91.50;;;;;;5119315;28;20019;-89
2023/11/21 12:19:20;;;;;;;12.10;5.93;;;-6.00;91.20;;;;;;5093234;28;20024;-89
2023/11/21 12:21:48;;;;;;;5.03;4.28;;;-6.10;90.90;;;;;;5097876;28;20032;-90
2023/11/21 12:24:16;;;;;;;7.55;5.75;;;-6.10;91.10;;;;;;5093732;28;20111;-90
2023/11/21 12:26:43;;;;;;;9.20;4.22;;;-6.20;91.20;;;;;;5092602;28;20430;-90
2023/11/21 12:29:10;;;;;;;9.13;4.78;;;-6.20;91.10;;;;;;5115638;28;20028;-90
2023/11/21 12:31:40;;;;;;;7.25;3.35;;;-6.30;91.20;;;;;;5097697;28;20527;-87
2023/11/21 12:34:06;;;;;;;6.85;5.45;;;-6.30;91.40;;;;;;5104395;28;20024;-91
2023/11/21 12:36:34;;;;;;;6.85;4.97;;;-6.30;91.40;;;;;;5086948;28;20015;-89
2023/11/21 12:39:00;;;;;;;;;;;-6.30;91.50;;;;;;5092374;28;20039;-88
2023/11/21 12:41:26;;;;;;;6.63;4.50;;;-6.30;91.50;;;;;;5109811;28;20272;-90
2023/11/21 12:43:52;;;;;;;6.03;4.30;;;-6.40;91.40;;;;;;5097539;28;20030;-89
2023/11/21 12:46:19;;;;;;;7.73;4.47;;;-6.30;91.50;;;;;;5088843;28;20072;-89
2023/11/21 12:48:46;;;;;;;;;;;-6.40;91.40;;;;;;5090781;28;20448;-91
2023/11/21 12:51:15;;;;;;;7.05;4.60;;;-6.40;91.30;;;;;;5086075;28;19934;-91
2023/11/21 12:53:42;;;;;;;8.90;4.47;;;-6.50;91.20;;;;;;5104500;28;20075;-90